Fairfield, Kentucky
Current Conditions -  °F | °C
As of 5:56 AM on Monday 20 Oct 2014 (Local Time) from KSDF Reporting Station
Overcast Overcast  
Wind Chill: 44°   Ceiling: 12000
Heat Index: 47°   Visibility: 10mi
Dew Point: 44°   Wind: 7mph
Humidity: 90%   Direction: 140°SE
Pressure: 30.04"   Gusts: NA
Location:  37.93°N, 85.38°W
Report Text: KSDF 200956Z 14006KT 10SM OVC120 08/07 A3004 RMK AO2 SLP173 T00830067
Loading
Personal Weather Stations






























Interactive Weather Map
Tropical Storm Tracking
New forecast layout! Learn more

10-Day Weather Forecast

Advertisements
Track Severe Weather on mobile